Capital Elite — WDD4777 — position and weather

sailwx.info

Track history (hours):
 
Tides and Currents Weather Stations Pressure Air Temp Water Temp Dewpoint Dewpoint Depression Visibility Wind Speed Wind Dir Waves Ship Positions

Capital Elite

Owner: Spirit Cruises, LLC, Chicago, IL. More information available from US FCC via Universal Licensing System and Coast Guard Vessel Documentation Center.

Last reported at 2017-Dec-11 01:54 UTC. Time now 2017-Dec-15 04:31 UTC.
Position N 38°52' W 077°01'.

Length 21 m; draft 0.9 m.

Type: Passenger vessel. MMSI: 367148890.

Date/timePositionNaut miles runAvg speedWind from/ knotsBaromVisibWave heightAir tempDewpointWater temp
2017-Dec-11 01:54N 38°52' W 077°01'1 3.1
2017-Dec-11 01:30N 38°51' W 077°01'3 6.2
2017-Dec-11 01:00N 38°48' W 077°02'1 2.5
2017-Dec-11 00:28N 38°47' W 077°01'1 3.0
2017-Dec-11 00:00N 38°48' W 077°02'3 5.7
2017-Dec-10 23:29N 38°51' W 077°01'1 2.7
2017-Dec-10 22:59N 38°52' W 077°01'0 0.0
2017-Dec-10 22:27N 38°52' W 077°01'0 0.0
2017-Dec-10 21:59N 38°52' W 077°01'0 0.0
2017-Dec-10 21:20N 38°52' W 077°01'0 0.0
2017-Dec-10 20:59N 38°52' W 077°01'0 0.0
2017-Dec-10 20:27N 38°52' W 077°01'0 0.0
2017-Dec-10 04:23N 38°52' W 077°01'3 7.3
2017-Dec-10 04:00N 38°50' W 077°02'3 5.5
2017-Dec-10 03:29N 38°47' W 077°01'0 0.2
2017-Dec-10 03:00N 38°47' W 077°01'1 2.2
2017-Dec-10 02:30N 38°48' W 077°02'3 5.7
2017-Dec-10 01:56N 38°51' W 077°01'0 0.4
2017-Dec-10 01:31N 38°51' W 077°01'2 4.4
2017-Dec-10 00:57N 38°48' W 077°02'2 3.4
2017-Dec-10 00:29N 38°47' W 077°01'0 0.2
2017-Dec-09 23:58N 38°47' W 077°01'0 0.0
2017-Dec-09 23:28N 38°47' W 077°01'1 1.6
2017-Dec-09 23:00N 38°47' W 077°02'4 7.1
2017-Dec-09 22:28N 38°50' W 077°01'2 4.4
2017-Dec-09 22:00N 38°52' W 077°01'0 0.0
2017-Dec-09 21:27N 38°52' W 077°01'0 0.0
2017-Dec-09 21:00N 38°52' W 077°01'0 0.0
2017-Dec-09 20:30N 38°52' W 077°01'0 0.0
2017-Dec-09 20:00N 38°52' W 077°01'0 0.0
2017-Dec-09 02:50N 38°52' W 077°01'1 2.4
2017-Dec-09 02:29N 38°52' W 077°00'3 5.3
2017-Dec-09 01:59N 38°49' W 077°02'2 3.5
2017-Dec-09 01:30N 38°48' W 077°02'2 4.1
2017-Dec-09 01:00N 38°50' W 077°02'2 4.7
2017-Dec-09 00:28N 38°52' W 077°01'0 0.3
2017-Dec-08 23:59N 38°52' W 077°01'0 0.0
2017-Dec-08 23:29N 38°52' W 077°01'0 0.0
2017-Dec-08 22:59N 38°52' W 077°01'0 0.0
2017-Dec-08 22:29N 38°52' W 077°01'0 0.0
2017-Dec-08 21:59N 38°52' W 077°01'0 0.0
2017-Dec-08 21:29N 38°52' W 077°01'0 0.0
2017-Dec-08 20:59N 38°52' W 077°01'0 0.0
2017-Dec-08 03:20N 38°52' W 077°01'0 0.3
2017-Dec-08 02:59N 38°52' W 077°01'3 6.3
2017-Dec-08 02:30N 38°49' W 077°02'3 5.1
2017-Dec-08 02:00N 38°47' W 077°02'1 1.2
2017-Dec-08 01:30N 38°47' W 077°02'3 6.1
2017-Dec-08 01:00N 38°50' W 077°02'2 2.4
2017-Dec-08 00:07N 38°52' W 077°01'0 0.0
2017-Dec-07 23:43N 38°52' W 077°01'0 0.0
2017-Dec-07 23:29N 38°52' W 077°01'0 0.0
2017-Dec-07 23:00N 38°52' W 077°01'0 0.0
2017-Dec-07 22:29N 38°52' W 077°01'0 0.0
2017-Dec-07 01:51N 38°52' W 077°01'1 2.1
2017-Dec-07 01:28N 38°52' W 077°01'1 1.9
2017-Dec-07 00:59N 38°51' W 077°01'0 0.6
2017-Dec-07 00:29N 38°51' W 077°02'1 1.9
2017-Dec-06 23:58N 38°52' W 077°01'0 0.0
2017-Dec-06 23:25N 38°52' W 077°01'0 0.0
2017-Dec-06 22:43N 38°52' W 077°01'0 0.0
2017-Dec-06 22:25N 38°52' W 077°01'0 0.0
2017-Dec-06 21:58N 38°52' W 077°01'0 0.0
2017-Dec-06 21:28N 38°52' W 077°01'3 5.5
2017-Dec-06 20:56N 38°50' W 077°02'  
2017-Dec-03 05:29N 38°52' W 077°01'3 6.3
2017-Dec-03 04:57N 38°49' W 077°02'3 5.3
2017-Dec-03 04:29N 38°47' W 077°02'1 1.3
2017-Dec-03 04:00N 38°47' W 077°01'1 1.7
2017-Dec-03 03:29N 38°47' W 077°02'3 6.2
2017-Dec-03 02:59N 38°50' W 077°02'2 4.4
2017-Dec-03 02:27N 38°53' W 077°02'1 2.7
2017-Dec-03 01:59N 38°52' W 077°01'1 1.7
2017-Dec-03 01:27N 38°51' W 077°01'2 4.6
2017-Dec-03 00:58N 38°49' W 077°02'2 4.3
2017-Dec-03 00:27N 38°47' W 077°02'1 1.2
2017-Dec-02 23:55N 38°47' W 077°01'0 0.0
2017-Dec-02 23:25N 38°47' W 077°01'0 0.6
2017-Dec-02 22:57N 38°47' W 077°01'2 4.2
2017-Dec-02 22:29N 38°49' W 077°02'3 6.0
2017-Dec-02 22:00N 38°52' W 077°01'1 0.0
2017-Dec-02 02:50N 38°52' W 077°01'2 5.0
2017-Dec-02 02:28N 38°51' W 077°01'3 5.0
2017-Dec-02 01:57N 38°48' W 077°02'2 4.4
2017-Dec-02 01:30N 38°46' W 077°02'2 4.1
2017-Dec-02 00:59N 38°48' W 077°02'3 5.7
2017-Dec-02 00:30N 38°51' W 077°01'  
Track history (hours):
 
Tides and Currents Weather Stations Pressure Air Temp Water Temp Dewpoint Dewpoint Depression Visibility Wind Speed Wind Dir Waves Ship Positions

Capital Elite

Owner: Spirit Cruises, LLC, Chicago, IL. More information available from US FCC via Universal Licensing System and Coast Guard Vessel Documentation Center.

Last reported at 2017-Dec-11 01:54 UTC. Time now 2017-Dec-15 04:31 UTC.
Position N 38°52' W 077°01'.

Length 21 m; draft 0.9 m.

Type: Passenger vessel. MMSI: 367148890.

Date/timePositionNaut miles runAvg speedWind from/ knotsBaromVisibWave heightAir tempDewpointWater temp
2017-Dec-11 01:54N 38°52' W 077°01'1 3.1
2017-Dec-11 01:30N 38°51' W 077°01'3 6.2
2017-Dec-11 01:00N 38°48' W 077°02'1 2.5
2017-Dec-11 00:28N 38°47' W 077°01'1 3.0
2017-Dec-11 00:00N 38°48' W 077°02'3 5.7
2017-Dec-10 23:29N 38°51' W 077°01'1 2.7
2017-Dec-10 22:59N 38°52' W 077°01'0 0.0
2017-Dec-10 22:27N 38°52' W 077°01'0 0.0
2017-Dec-10 21:59N 38°52' W 077°01'0 0.0
2017-Dec-10 21:20N 38°52' W 077°01'0 0.0
2017-Dec-10 20:59N 38°52' W 077°01'0 0.0
2017-Dec-10 20:27N 38°52' W 077°01'0 0.0
2017-Dec-10 04:23N 38°52' W 077°01'3 7.3
2017-Dec-10 04:00N 38°50' W 077°02'3 5.5
2017-Dec-10 03:29N 38°47' W 077°01'0 0.2
2017-Dec-10 03:00N 38°47' W 077°01'1 2.2
2017-Dec-10 02:30N 38°48' W 077°02'3 5.7
2017-Dec-10 01:56N 38°51' W 077°01'0 0.4
2017-Dec-10 01:31N 38°51' W 077°01'2 4.4
2017-Dec-10 00:57N 38°48' W 077°02'2 3.4
2017-Dec-10 00:29N 38°47' W 077°01'0 0.2
2017-Dec-09 23:58N 38°47' W 077°01'0 0.0
2017-Dec-09 23:28N 38°47' W 077°01'1 1.6
2017-Dec-09 23:00N 38°47' W 077°02'4 7.1
2017-Dec-09 22:28N 38°50' W 077°01'2 4.4
2017-Dec-09 22:00N 38°52' W 077°01'0 0.0
2017-Dec-09 21:27N 38°52' W 077°01'0 0.0
2017-Dec-09 21:00N 38°52' W 077°01'0 0.0
2017-Dec-09 20:30N 38°52' W 077°01'0 0.0
2017-Dec-09 20:00N 38°52' W 077°01'0 0.0
2017-Dec-09 02:50N 38°52' W 077°01'1 2.4
2017-Dec-09 02:29N 38°52' W 077°00'3 5.3
2017-Dec-09 01:59N 38°49' W 077°02'2 3.5
2017-Dec-09 01:30N 38°48' W 077°02'2 4.1
2017-Dec-09 01:00N 38°50' W 077°02'2 4.7
2017-Dec-09 00:28N 38°52' W 077°01'0 0.3
2017-Dec-08 23:59N 38°52' W 077°01'0 0.0
2017-Dec-08 23:29N 38°52' W 077°01'0 0.0
2017-Dec-08 22:59N 38°52' W 077°01'0 0.0
2017-Dec-08 22:29N 38°52' W 077°01'0 0.0
2017-Dec-08 21:59N 38°52' W 077°01'0 0.0
2017-Dec-08 21:29N 38°52' W 077°01'0 0.0
2017-Dec-08 20:59N 38°52' W 077°01'0 0.0
2017-Dec-08 03:20N 38°52' W 077°01'0 0.3
2017-Dec-08 02:59N 38°52' W 077°01'3 6.3
2017-Dec-08 02:30N 38°49' W 077°02'3 5.1
2017-Dec-08 02:00N 38°47' W 077°02'1 1.2
2017-Dec-08 01:30N 38°47' W 077°02'3 6.1
2017-Dec-08 01:00N 38°50' W 077°02'2 2.4
2017-Dec-08 00:07N 38°52' W 077°01'0 0.0
2017-Dec-07 23:43N 38°52' W 077°01'0 0.0
2017-Dec-07 23:29N 38°52' W 077°01'0 0.0
2017-Dec-07 23:00N 38°52' W 077°01'0 0.0
2017-Dec-07 22:29N 38°52' W 077°01'0 0.0
2017-Dec-07 01:51N 38°52' W 077°01'1 2.1
2017-Dec-07 01:28N 38°52' W 077°01'1 1.9
2017-Dec-07 00:59N 38°51' W 077°01'0 0.6
2017-Dec-07 00:29N 38°51' W 077°02'1 1.9
2017-Dec-06 23:58N 38°52' W 077°01'0 0.0
2017-Dec-06 23:25N 38°52' W 077°01'0 0.0
2017-Dec-06 22:43N 38°52' W 077°01'0 0.0
2017-Dec-06 22:25N 38°52' W 077°01'0 0.0
2017-Dec-06 21:58N 38°52' W 077°01'0 0.0
2017-Dec-06 21:28N 38°52' W 077°01'3 5.5
2017-Dec-06 20:56N 38°50' W 077°02'  
2017-Dec-03 05:29N 38°52' W 077°01'3 6.3
2017-Dec-03 04:57N 38°49' W 077°02'3 5.3
2017-Dec-03 04:29N 38°47' W 077°02'1 1.3
2017-Dec-03 04:00N 38°47' W 077°01'1 1.7
2017-Dec-03 03:29N 38°47' W 077°02'3 6.2
2017-Dec-03 02:59N 38°50' W 077°02'2 4.4
2017-Dec-03 02:27N 38°53' W 077°02'1 2.7
2017-Dec-03 01:59N 38°52' W 077°01'1 1.7
2017-Dec-03 01:27N 38°51' W 077°01'2 4.6
2017-Dec-03 00:58N 38°49' W 077°02'2 4.3
2017-Dec-03 00:27N 38°47' W 077°02'1 1.2
2017-Dec-02 23:55N 38°47' W 077°01'0 0.0
2017-Dec-02 23:25N 38°47' W 077°01'0 0.6
2017-Dec-02 22:57N 38°47' W 077°01'2 4.2
2017-Dec-02 22:29N 38°49' W 077°02'3 6.0
2017-Dec-02 22:00N 38°52' W 077°01'1 0.0
2017-Dec-02 02:50N 38°52' W 077°01'2 5.0
2017-Dec-02 02:28N 38°51' W 077°01'3 5.0
2017-Dec-02 01:57N 38°48' W 077°02'2 4.4
2017-Dec-02 01:30N 38°46' W 077°02'2 4.1
2017-Dec-02 00:59N 38°48' W 077°02'3 5.7
2017-Dec-02 00:30N 38°51' W 077°01'  

Dump ship's entire track history